sensor_id;sensor_type;location;lat;lon;timestamp;P1;durP1;ratioP1;P2;durP2;ratioP2
83495;SDS011;73431;40.794;43.836;2023-12-28T00:01:24;26.38;;;13.60;;
83495;SDS011;73431;40.794;43.836;2023-12-28T00:03:52;21.92;;;12.90;;
83495;SDS011;73431;40.794;43.836;2023-12-28T00:06:20;21.98;;;12.38;;
83495;SDS011;73431;40.794;43.836;2023-12-28T00:08:48;22.90;;;11.90;;
83495;SDS011;73431;40.794;43.836;2023-12-28T00:11:30;28.17;;;14.65;;
83495;SDS011;73431;40.794;43.836;2023-12-28T00:13:57;24.52;;;13.43;;
83495;SDS011;73431;40.794;43.836;2023-12-28T00:16:25;27.13;;;13.95;;
83495;SDS011;73431;40.794;43.836;2023-12-28T00:18:53;23.10;;;12.80;;
83495;SDS011;73431;40.794;43.836;2023-12-28T00:21:21;26.75;;;15.10;;
83495;SDS011;73431;40.794;43.836;2023-12-28T00:23:49;29.75;;;14.38;;
83495;SDS011;73431;40.794;43.836;2023-12-28T00:26:17;26.73;;;13.43;;
83495;SDS011;73431;40.794;43.836;2023-12-28T00:28:59;26.13;;;14.55;;
83495;SDS011;73431;40.794;43.836;2023-12-28T00:31:27;25.48;;;13.18;;
83495;SDS011;73431;40.794;43.836;2023-12-28T00:33:55;26.30;;;12.68;;
83495;SDS011;73431;40.794;43.836;2023-12-28T00:36:23;21.10;;;11.93;;
83495;SDS011;73431;40.794;43.836;2023-12-28T00:38:51;25.08;;;14.32;;
83495;SDS011;73431;40.794;43.836;2023-12-28T00:41:20;19.80;;;11.95;;
83495;SDS011;73431;40.794;43.836;2023-12-28T00:43:48;21.38;;;11.52;;
83495;SDS011;73431;40.794;43.836;2023-12-28T00:46:15;25.00;;;12.68;;
83495;SDS011;73431;40.794;43.836;2023-12-28T00:48:43;26.02;;;12.52;;
83495;SDS011;73431;40.794;43.836;2023-12-28T00:51:11;23.08;;;11.68;;
83495;SDS011;73431;40.794;43.836;2023-12-28T00:53:39;25.52;;;13.73;;
83495;SDS011;73431;40.794;43.836;2023-12-28T00:56:07;22.05;;;11.93;;
83495;SDS011;73431;40.794;43.836;2023-12-28T00:58:38;23.08;;;14.00;;
83495;SDS011;73431;40.794;43.836;2023-12-28T01:01:08;26.98;;;14.18;;
83495;SDS011;73431;40.794;43.836;2023-12-28T01:03:39;24.45;;;13.85;;
83495;SDS011;73431;40.794;43.836;2023-12-28T01:06:07;22.33;;;14.00;;
83495;SDS011;73431;40.794;43.836;2023-12-28T01:08:35;28.77;;;14.98;;
83495;SDS011;73431;40.794;43.836;2023-12-28T01:11:02;30.13;;;16.10;;
83495;SDS011;73431;40.794;43.836;2023-12-28T01:13:30;26.00;;;16.52;;
83495;SDS011;73431;40.794;43.836;2023-12-28T01:15:59;29.90;;;17.77;;
83495;SDS011;73431;40.794;43.836;2023-12-28T01:18:27;27.20;;;15.82;;
83495;SDS011;73431;40.794;43.836;2023-12-28T01:20:55;30.95;;;16.48;;
83495;SDS011;73431;40.794;43.836;2023-12-28T01:23:23;25.42;;;17.88;;
83495;SDS011;73431;40.794;43.836;2023-12-28T01:25:52;27.42;;;15.70;;
83495;SDS011;73431;40.794;43.836;2023-12-28T01:28:19;26.13;;;14.73;;
83495;SDS011;73431;40.794;43.836;2023-12-28T01:30:47;25.05;;;14.82;;
83495;SDS011;73431;40.794;43.836;2023-12-28T01:33:14;26.33;;;15.25;;
83495;SDS011;73431;40.794;43.836;2023-12-28T01:35:43;22.48;;;13.07;;
83495;SDS011;73431;40.794;43.836;2023-12-28T01:40:38;24.00;;;14.80;;
83495;SDS011;73431;40.794;43.836;2023-12-28T01:43:10;27.77;;;13.45;;
83495;SDS011;73431;40.794;43.836;2023-12-28T01:45:38;25.08;;;14.55;;
83495;SDS011;73431;40.794;43.836;2023-12-28T01:48:06;24.65;;;13.38;;
83495;SDS011;73431;40.794;43.836;2023-12-28T01:50:34;22.88;;;13.82;;
83495;SDS011;73431;40.794;43.836;2023-12-28T01:53:03;22.73;;;13.55;;
83495;SDS011;73431;40.794;43.836;2023-12-28T01:55:31;21.55;;;13.15;;
83495;SDS011;73431;40.794;43.836;2023-12-28T01:58:01;21.25;;;14.10;;
83495;SDS011;73431;40.794;43.836;2023-12-28T02:00:29;23.80;;;14.60;;
83495;SDS011;73431;40.794;43.836;2023-12-28T02:02:59;23.17;;;12.15;;
83495;SDS011;73431;40.794;43.836;2023-12-28T02:05:28;20.10;;;12.82;;
83495;SDS011;73431;40.794;43.836;2023-12-28T02:07:57;23.80;;;12.85;;
83495;SDS011;73431;40.794;43.836;2023-12-28T02:10:25;20.90;;;13.32;;
83495;SDS011;73431;40.794;43.836;2023-12-28T02:12:53;22.48;;;11.45;;
83495;SDS011;73431;40.794;43.836;2023-12-28T02:15:23;23.48;;;12.23;;
83495;SDS011;73431;40.794;43.836;2023-12-28T02:20:39;18.33;;;12.02;;
83495;SDS011;73431;40.794;43.836;2023-12-28T02:23:09;21.90;;;12.35;;
83495;SDS011;73431;40.794;43.836;2023-12-28T02:25:37;21.77;;;11.27;;
83495;SDS011;73431;40.794;43.836;2023-12-28T02:28:05;20.73;;;12.82;;
83495;SDS011;73431;40.794;43.836;2023-12-28T02:30:32;22.75;;;12.82;;
83495;SDS011;73431;40.794;43.836;2023-12-28T02:38:08;20.65;;;12.10;;
83495;SDS011;73431;40.794;43.836;2023-12-28T02:43:06;23.50;;;12.48;;
83495;SDS011;73431;40.794;43.836;2023-12-28T02:45:36;24.77;;;11.98;;
83495;SDS011;73431;40.794;43.836;2023-12-28T02:48:04;22.73;;;12.65;;
83495;SDS011;73431;40.794;43.836;2023-12-28T02:50:33;21.58;;;12.27;;
83495;SDS011;73431;40.794;43.836;2023-12-28T02:53:02;19.65;;;11.45;;
83495;SDS011;73431;40.794;43.836;2023-12-28T02:55:31;21.13;;;13.48;;
83495;SDS011;73431;40.794;43.836;2023-12-28T02:57:59;20.67;;;11.82;;
83495;SDS011;73431;40.794;43.836;2023-12-28T03:00:28;23.50;;;11.77;;
83495;SDS011;73431;40.794;43.836;2023-12-28T03:02:56;21.05;;;12.73;;
83495;SDS011;73431;40.794;43.836;2023-12-28T03:05:24;20.27;;;12.95;;
83495;SDS011;73431;40.794;43.836;2023-12-28T03:07:52;22.95;;;14.27;;
83495;SDS011;73431;40.794;43.836;2023-12-28T03:10:23;23.92;;;14.27;;
83495;SDS011;73431;40.794;43.836;2023-12-28T03:15:18;23.30;;;13.13;;
83495;SDS011;73431;40.794;43.836;2023-12-28T03:17:49;23.67;;;13.65;;
83495;SDS011;73431;40.794;43.836;2023-12-28T03:20:17;25.38;;;12.95;;
83495;SDS011;73431;40.794;43.836;2023-12-28T03:22:45;26.75;;;13.02;;
83495;SDS011;73431;40.794;43.836;2023-12-28T03:25:14;26.35;;;14.15;;
83495;SDS011;73431;40.794;43.836;2023-12-28T03:27:42;28.30;;;13.52;;
83495;SDS011;73431;40.794;43.836;2023-12-28T03:30:11;27.10;;;13.48;;
83495;SDS011;73431;40.794;43.836;2023-12-28T03:32:39;24.77;;;12.88;;
83495;SDS011;73431;40.794;43.836;2023-12-28T03:35:06;25.75;;;14.02;;
83495;SDS011;73431;40.794;43.836;2023-12-28T03:37:34;28.02;;;12.65;;
83495;SDS011;73431;40.794;43.836;2023-12-28T03:40:02;22.98;;;11.98;;
83495;SDS011;73431;40.794;43.836;2023-12-28T03:42:31;23.48;;;13.90;;
83495;SDS011;73431;40.794;43.836;2023-12-28T03:44:59;22.33;;;13.20;;
83495;SDS011;73431;40.794;43.836;2023-12-28T03:47:28;23.75;;;13.55;;
83495;SDS011;73431;40.794;43.836;2023-12-28T03:49:55;24.58;;;14.65;;
83495;SDS011;73431;40.794;43.836;2023-12-28T03:52:27;23.85;;;14.32;;
83495;SDS011;73431;40.794;43.836;2023-12-28T03:54:59;22.77;;;13.30;;
83495;SDS011;73431;40.794;43.836;2023-12-28T03:57:28;25.42;;;13.02;;
83495;SDS011;73431;40.794;43.836;2023-12-28T03:59:56;19.98;;;12.35;;
83495;SDS011;73431;40.794;43.836;2023-12-28T04:02:24;20.67;;;12.90;;
83495;SDS011;73431;40.794;43.836;2023-12-28T04:04:54;20.40;;;10.75;;
83495;SDS011;73431;40.794;43.836;2023-12-28T04:07:22;21.42;;;10.77;;
83495;SDS011;73431;40.794;43.836;2023-12-28T04:09:51;19.45;;;11.93;;
83495;SDS011;73431;40.794;43.836;2023-12-28T04:12:19;22.75;;;12.43;;
83495;SDS011;73431;40.794;43.836;2023-12-28T04:14:47;18.35;;;11.43;;
83495;SDS011;73431;40.794;43.836;2023-12-28T04:17:16;19.75;;;11.70;;
83495;SDS011;73431;40.794;43.836;2023-12-28T04:19:43;23.85;;;13.77;;
83495;SDS011;73431;40.794;43.836;2023-12-28T04:24:39;17.52;;;10.77;;
83495;SDS011;73431;40.794;43.836;2023-12-28T04:27:07;20.17;;;11.30;;
83495;SDS011;73431;40.794;43.836;2023-12-28T04:29:35;17.55;;;10.63;;
83495;SDS011;73431;40.794;43.836;2023-12-28T04:32:03;19.90;;;10.95;;
83495;SDS011;73431;40.794;43.836;2023-12-28T04:34:31;21.23;;;12.02;;
83495;SDS011;73431;40.794;43.836;2023-12-28T04:36:59;20.73;;;11.10;;
83495;SDS011;73431;40.794;43.836;2023-12-28T04:39:26;21.50;;;12.75;;
83495;SDS011;73431;40.794;43.836;2023-12-28T04:41:54;21.95;;;13.13;;
83495;SDS011;73431;40.794;43.836;2023-12-28T04:44:22;23.52;;;13.05;;
83495;SDS011;73431;40.794;43.836;2023-12-28T04:46:50;23.02;;;13.15;;
83495;SDS011;73431;40.794;43.836;2023-12-28T04:49:18;25.20;;;13.55;;
83495;SDS011;73431;40.794;43.836;2023-12-28T04:51:46;22.80;;;12.43;;
83495;SDS011;73431;40.794;43.836;2023-12-28T04:54:15;26.85;;;14.85;;
83495;SDS011;73431;40.794;43.836;2023-12-28T04:56:42;26.38;;;14.25;;
83495;SDS011;73431;40.794;43.836;2023-12-28T04:59:12;23.98;;;12.23;;
83495;SDS011;73431;40.794;43.836;2023-12-28T05:01:41;22.88;;;13.20;;
83495;SDS011;73431;40.794;43.836;2023-12-28T05:04:10;23.67;;;13.13;;
83495;SDS011;73431;40.794;43.836;2023-12-28T05:06:44;26.67;;;13.68;;
83495;SDS011;73431;40.794;43.836;2023-12-28T05:09:13;26.70;;;14.23;;
83495;SDS011;73431;40.794;43.836;2023-12-28T05:14:09;27.15;;;14.52;;
83495;SDS011;73431;40.794;43.836;2023-12-28T05:16:37;27.02;;;14.63;;
83495;SDS011;73431;40.794;43.836;2023-12-28T05:19:05;26.65;;;15.95;;
83495;SDS011;73431;40.794;43.836;2023-12-28T05:21:33;20.77;;;12.02;;
83495;SDS011;73431;40.794;43.836;2023-12-28T05:24:00;23.40;;;12.23;;
83495;SDS011;73431;40.794;43.836;2023-12-28T05:26:28;25.08;;;13.55;;
83495;SDS011;73431;40.794;43.836;2023-12-28T05:28:56;28.25;;;12.07;;
83495;SDS011;73431;40.794;43.836;2023-12-28T05:31:24;18.30;;;10.23;;
83495;SDS011;73431;40.794;43.836;2023-12-28T05:33:52;24.73;;;8.82;;
83495;SDS011;73431;40.794;43.836;2023-12-28T05:36:20;16.38;;;9.60;;
83495;SDS011;73431;40.794;43.836;2023-12-28T05:38:47;12.82;;;7.53;;
83495;SDS011;73431;40.794;43.836;2023-12-28T05:41:16;14.13;;;6.50;;
83495;SDS011;73431;40.794;43.836;2023-12-28T05:43:44;11.88;;;5.55;;
83495;SDS011;73431;40.794;43.836;2023-12-28T05:46:11;10.32;;;5.13;;
83495;SDS011;73431;40.794;43.836;2023-12-28T05:48:39;5.72;;;3.78;;
83495;SDS011;73431;40.794;43.836;2023-12-28T05:51:08;6.07;;;3.92;;
83495;SDS011;73431;40.794;43.836;2023-12-28T05:53:36;7.85;;;3.75;;
83495;SDS011;73431;40.794;43.836;2023-12-28T05:56:04;8.27;;;3.30;;
83495;SDS011;73431;40.794;43.836;2023-12-28T05:58:31;5.30;;;3.25;;
83495;SDS011;73431;40.794;43.836;2023-12-28T06:00:59;6.97;;;2.85;;
83495;SDS011;73431;40.794;43.836;2023-12-28T06:03:27;4.10;;;2.67;;
83495;SDS011;73431;40.794;43.836;2023-12-28T06:05:56;4.30;;;2.72;;
83495;SDS011;73431;40.794;43.836;2023-12-28T06:08:24;6.05;;;2.95;;
83495;SDS011;73431;40.794;43.836;2023-12-28T06:10:54;5.28;;;2.38;;
83495;SDS011;73431;40.794;43.836;2023-12-28T06:13:22;4.70;;;2.42;;
83495;SDS011;73431;40.794;43.836;2023-12-28T06:15:49;7.45;;;2.28;;
83495;SDS011;73431;40.794;43.836;2023-12-28T06:18:17;2.95;;;1.42;;
83495;SDS011;73431;40.794;43.836;2023-12-28T06:20:45;3.65;;;1.67;;
83495;SDS011;73431;40.794;43.836;2023-12-28T06:23:13;3.05;;;1.52;;
83495;SDS011;73431;40.794;43.836;2023-12-28T06:25:41;2.58;;;1.10;;
83495;SDS011;73431;40.794;43.836;2023-12-28T06:28:09;2.92;;;1.55;;
83495;SDS011;73431;40.794;43.836;2023-12-28T06:30:37;3.75;;;1.30;;
83495;SDS011;73431;40.794;43.836;2023-12-28T06:33:07;2.53;;;1.80;;
83495;SDS011;73431;40.794;43.836;2023-12-28T06:35:34;1.45;;;1.00;;
83495;SDS011;73431;40.794;43.836;2023-12-28T06:38:02;3.72;;;2.38;;
83495;SDS011;73431;40.794;43.836;2023-12-28T06:40:30;12.95;;;6.75;;
83495;SDS011;73431;40.794;43.836;2023-12-28T06:42:58;2.03;;;1.30;;
83495;SDS011;73431;40.794;43.836;2023-12-28T06:45:26;3.83;;;0.60;;
83495;SDS011;73431;40.794;43.836;2023-12-28T06:47:56;2.33;;;0.68;;
83495;SDS011;73431;40.794;43.836;2023-12-28T06:50:24;2.83;;;1.40;;
83495;SDS011;73431;40.794;43.836;2023-12-28T06:52:52;1.05;;;0.65;;
83495;SDS011;73431;40.794;43.836;2023-12-28T06:55:20;0.95;;;0.52;;
83495;SDS011;73431;40.794;43.836;2023-12-28T06:57:48;1.88;;;0.80;;
83495;SDS011;73431;40.794;43.836;2023-12-28T07:00:16;1.48;;;0.55;;
83495;SDS011;73431;40.794;43.836;2023-12-28T07:02:45;2.65;;;1.75;;
83495;SDS011;73431;40.794;43.836;2023-12-28T07:05:12;0.80;;;0.60;;
83495;SDS011;73431;40.794;43.836;2023-12-28T07:07:41;3.17;;;0.55;;
83495;SDS011;73431;40.794;43.836;2023-12-28T07:10:09;1.67;;;0.80;;
83495;SDS011;73431;40.794;43.836;2023-12-28T07:12:40;1.73;;;0.70;;
83495;SDS011;73431;40.794;43.836;2023-12-28T07:15:08;8.60;;;1.05;;
83495;SDS011;73431;40.794;43.836;2023-12-28T07:17:40;2.47;;;1.05;;
83495;SDS011;73431;40.794;43.836;2023-12-28T07:20:09;1.48;;;0.70;;
83495;SDS011;73431;40.794;43.836;2023-12-28T07:22:38;5.28;;;0.70;;
83495;SDS011;73431;40.794;43.836;2023-12-28T07:27:34;1.88;;;0.88;;
83495;SDS011;73431;40.794;43.836;2023-12-28T07:30:02;1.60;;;0.60;;
83495;SDS011;73431;40.794;43.836;2023-12-28T07:32:32;1.92;;;0.80;;
83495;SDS011;73431;40.794;43.836;2023-12-28T07:35:00;2.13;;;0.75;;
83495;SDS011;73431;40.794;43.836;2023-12-28T07:37:28;10.40;;;2.25;;
83495;SDS011;73431;40.794;43.836;2023-12-28T07:39:56;1.50;;;0.70;;
83495;SDS011;73431;40.794;43.836;2023-12-28T07:42:25;1.75;;;1.20;;
83495;SDS011;73431;40.794;43.836;2023-12-28T07:44:53;3.03;;;0.68;;
83495;SDS011;73431;40.794;43.836;2023-12-28T07:47:21;4.22;;;1.05;;
83495;SDS011;73431;40.794;43.836;2023-12-28T07:49:49;2.42;;;0.77;;
83495;SDS011;73431;40.794;43.836;2023-12-28T07:52:17;2.15;;;0.70;;
83495;SDS011;73431;40.794;43.836;2023-12-28T07:54:45;2.13;;;0.98;;
83495;SDS011;73431;40.794;43.836;2023-12-28T07:57:21;1.33;;;0.85;;
83495;SDS011;73431;40.794;43.836;2023-12-28T07:59:48;3.08;;;0.95;;
83495;SDS011;73431;40.794;43.836;2023-12-28T08:02:17;2.00;;;1.08;;
83495;SDS011;73431;40.794;43.836;2023-12-28T08:04:49;2.13;;;0.98;;
83495;SDS011;73431;40.794;43.836;2023-12-28T08:07:18;1.92;;;1.02;;
83495;SDS011;73431;40.794;43.836;2023-12-28T08:12:13;2.92;;;1.50;;
83495;SDS011;73431;40.794;43.836;2023-12-28T08:17:10;3.47;;;0.85;;
83495;SDS011;73431;40.794;43.836;2023-12-28T08:19:37;6.88;;;1.02;;
83495;SDS011;73431;40.794;43.836;2023-12-28T08:22:05;0.95;;;0.63;;
83495;SDS011;73431;40.794;43.836;2023-12-28T08:24:33;2.17;;;1.00;;
83495;SDS011;73431;40.794;43.836;2023-12-28T08:27:02;9.50;;;1.40;;
83495;SDS011;73431;40.794;43.836;2023-12-28T08:29:30;5.97;;;1.27;;
83495;SDS011;73431;40.794;43.836;2023-12-28T08:31:58;3.70;;;0.98;;
83495;SDS011;73431;40.794;43.836;2023-12-28T08:34:26;1.48;;;1.13;;
83495;SDS011;73431;40.794;43.836;2023-12-28T08:36:55;4.55;;;0.90;;
83495;SDS011;73431;40.794;43.836;2023-12-28T08:39:23;4.03;;;1.30;;
83495;SDS011;73431;40.794;43.836;2023-12-28T08:41:51;4.30;;;1.40;;
83495;SDS011;73431;40.794;43.836;2023-12-28T08:44:19;17.55;;;1.10;;
83495;SDS011;73431;40.794;43.836;2023-12-28T08:46:46;2.20;;;1.08;;
83495;SDS011;73431;40.794;43.836;2023-12-28T08:49:14;3.53;;;1.00;;
83495;SDS011;73431;40.794;43.836;2023-12-28T08:51:43;5.95;;;1.52;;
83495;SDS011;73431;40.794;43.836;2023-12-28T08:54:11;7.45;;;1.00;;
83495;SDS011;73431;40.794;43.836;2023-12-28T08:56:39;3.03;;;0.82;;
83495;SDS011;73431;40.794;43.836;2023-12-28T08:59:07;6.75;;;1.65;;
83495;SDS011;73431;40.794;43.836;2023-12-28T09:01:34;2.70;;;0.63;;
83495;SDS011;73431;40.794;43.836;2023-12-28T09:04:02;0.90;;;0.60;;
83495;SDS011;73431;40.794;43.836;2023-12-28T09:06:30;4.20;;;0.90;;
83495;SDS011;73431;40.794;43.836;2023-12-28T09:08:58;1.77;;;1.15;;
83495;SDS011;73431;40.794;43.836;2023-12-28T09:11:27;25.52;;;1.13;;
83495;SDS011;73431;40.794;43.836;2023-12-28T09:13:56;6.30;;;1.17;;
83495;SDS011;73431;40.794;43.836;2023-12-28T09:16:23;2.58;;;0.95;;
83495;SDS011;73431;40.794;43.836;2023-12-28T09:18:51;4.10;;;0.90;;
83495;SDS011;73431;40.794;43.836;2023-12-28T09:21:19;1.33;;;0.80;;
83495;SDS011;73431;40.794;43.836;2023-12-28T09:23:48;3.00;;;0.80;;
83495;SDS011;73431;40.794;43.836;2023-12-28T09:26:17;6.28;;;0.73;;
83495;SDS011;73431;40.794;43.836;2023-12-28T09:28:45;4.72;;;1.17;;
83495;SDS011;73431;40.794;43.836;2023-12-28T09:31:12;1.98;;;1.00;;
83495;SDS011;73431;40.794;43.836;2023-12-28T09:33:40;2.45;;;0.93;;
83495;SDS011;73431;40.794;43.836;2023-12-28T09:36:09;1.88;;;0.70;;
83495;SDS011;73431;40.794;43.836;2023-12-28T09:38:40;4.78;;;1.00;;
83495;SDS011;73431;40.794;43.836;2023-12-28T09:43:54;1.40;;;0.80;;
83495;SDS011;73431;40.794;43.836;2023-12-28T09:46:25;1.20;;;0.60;;
83495;SDS011;73431;40.794;43.836;2023-12-28T09:48:54;6.97;;;1.05;;
83495;SDS011;73431;40.794;43.836;2023-12-28T09:51:24;7.63;;;1.20;;
83495;SDS011;73431;40.794;43.836;2023-12-28T09:53:53;2.42;;;0.88;;
83495;SDS011;73431;40.794;43.836;2023-12-28T09:56:21;4.38;;;1.40;;
83495;SDS011;73431;40.794;43.836;2023-12-28T09:58:52;8.00;;;2.00;;
83495;SDS011;73431;40.794;43.836;2023-12-28T10:01:22;1.58;;;0.80;;
83495;SDS011;73431;40.794;43.836;2023-12-28T10:03:50;1.30;;;0.90;;
83495;SDS011;73431;40.794;43.836;2023-12-28T10:08:45;6.38;;;0.90;;
83495;SDS011;73431;40.794;43.836;2023-12-28T10:11:18;2.13;;;1.15;;
83495;SDS011;73431;40.794;43.836;2023-12-28T10:13:50;0.90;;;0.55;;
83495;SDS011;73431;40.794;43.836;2023-12-28T10:16:18;1.05;;;0.70;;
83495;SDS011;73431;40.794;43.836;2023-12-28T10:18:46;1.05;;;0.65;;
83495;SDS011;73431;40.794;43.836;2023-12-28T10:21:14;3.10;;;0.60;;
83495;SDS011;73431;40.794;43.836;2023-12-28T10:23:42;0.70;;;0.43;;
83495;SDS011;73431;40.794;43.836;2023-12-28T10:28:39;2.05;;;0.80;;
83495;SDS011;73431;40.794;43.836;2023-12-28T10:33:39;0.88;;;0.50;;
83495;SDS011;73431;40.794;43.836;2023-12-28T10:36:09;2.08;;;0.60;;
83495;SDS011;73431;40.794;43.836;2023-12-28T10:38:38;1.08;;;0.43;;
83495;SDS011;73431;40.794;43.836;2023-12-28T10:41:08;0.90;;;0.57;;
83495;SDS011;73431;40.794;43.836;2023-12-28T10:43:45;1.08;;;0.63;;
83495;SDS011;73431;40.794;43.836;2023-12-28T10:46:18;0.70;;;0.40;;
83495;SDS011;73431;40.794;43.836;2023-12-28T10:49:12;1.08;;;0.50;;
83495;SDS011;73431;40.794;43.836;2023-12-28T10:51:44;2.05;;;0.85;;
83495;SDS011;73431;40.794;43.836;2023-12-28T10:56:56;3.53;;;0.55;;
83495;SDS011;73431;40.794;43.836;2023-12-28T11:02:01;1.13;;;0.43;;
83495;SDS011;73431;40.794;43.836;2023-12-28T11:07:17;1.00;;;0.50;;
83495;SDS011;73431;40.794;43.836;2023-12-28T11:09:45;2.15;;;0.50;;
83495;SDS011;73431;40.794;43.836;2023-12-28T11:12:13;5.55;;;0.50;;
83495;SDS011;73431;40.794;43.836;2023-12-28T11:14:44;1.15;;;0.50;;
83495;SDS011;73431;40.794;43.836;2023-12-28T11:17:15;0.75;;;0.50;;
83495;SDS011;73431;40.794;43.836;2023-12-28T11:19:43;1.10;;;0.70;;
83495;SDS011;73431;40.794;43.836;2023-12-28T11:22:12;2.30;;;0.82;;
83495;SDS011;73431;40.794;43.836;2023-12-28T11:24:42;9.43;;;5.03;;
83495;SDS011;73431;40.794;43.836;2023-12-28T11:27:10;0.82;;;0.50;;
83495;SDS011;73431;40.794;43.836;2023-12-28T11:29:41;4.03;;;0.85;;
83495;SDS011;73431;40.794;43.836;2023-12-28T11:32:08;2.00;;;0.40;;
83495;SDS011;73431;40.794;43.836;2023-12-28T11:34:36;0.57;;;0.40;;
83495;SDS011;73431;40.794;43.836;2023-12-28T11:37:08;1.80;;;0.60;;
83495;SDS011;73431;40.794;43.836;2023-12-28T11:39:41;5.07;;;0.65;;
83495;SDS011;73431;40.794;43.836;2023-12-28T11:42:12;2.63;;;0.68;;
83495;SDS011;73431;40.794;43.836;2023-12-28T11:44:47;5.75;;;0.98;;
83495;SDS011;73431;40.794;43.836;2023-12-28T11:47:20;0.82;;;0.50;;
83495;SDS011;73431;40.794;43.836;2023-12-28T11:49:50;3.92;;;0.73;;
83495;SDS011;73431;40.794;43.836;2023-12-28T11:52:29;4.10;;;2.30;;
83495;SDS011;73431;40.794;43.836;2023-12-28T11:54:58;2.20;;;0.73;;
83495;SDS011;73431;40.794;43.836;2023-12-28T11:57:30;4.50;;;0.93;;
83495;SDS011;73431;40.794;43.836;2023-12-28T11:59:59;3.00;;;1.15;;
83495;SDS011;73431;40.794;43.836;2023-12-28T12:02:30;2.63;;;0.85;;
83495;SDS011;73431;40.794;43.836;2023-12-28T12:04:58;1.58;;;0.60;;
83495;SDS011;73431;40.794;43.836;2023-12-28T12:07:29;2.45;;;0.63;;
83495;SDS011;73431;40.794;43.836;2023-12-28T12:09:58;0.85;;;0.47;;
83495;SDS011;73431;40.794;43.836;2023-12-28T12:12:28;1.83;;;0.38;;
83495;SDS011;73431;40.794;43.836;2023-12-28T12:14:56;1.25;;;0.63;;
83495;SDS011;73431;40.794;43.836;2023-12-28T12:17:24;0.77;;;0.40;;
83495;SDS011;73431;40.794;43.836;2023-12-28T12:19:53;7.93;;;0.65;;
83495;SDS011;73431;40.794;43.836;2023-12-28T12:22:23;3.60;;;0.40;;
83495;SDS011;73431;40.794;43.836;2023-12-28T12:24:55;0.65;;;0.50;;
83495;SDS011;73431;40.794;43.836;2023-12-28T12:27:28;1.23;;;0.30;;
83495;SDS011;73431;40.794;43.836;2023-12-28T12:29:55;1.00;;;0.70;;
83495;SDS011;73431;40.794;43.836;2023-12-28T12:32:23;2.35;;;0.30;;
83495;SDS011;73431;40.794;43.836;2023-12-28T12:34:51;2.28;;;1.10;;
83495;SDS011;73431;40.794;43.836;2023-12-28T12:37:20;3.60;;;0.90;;
83495;SDS011;73431;40.794;43.836;2023-12-28T12:39:48;1.08;;;0.50;;
83495;SDS011;73431;40.794;43.836;2023-12-28T12:44:45;1.30;;;0.50;;
83495;SDS011;73431;40.794;43.836;2023-12-28T12:47:13;1.25;;;0.52;;
83495;SDS011;73431;40.794;43.836;2023-12-28T12:49:40;1.40;;;0.50;;
83495;SDS011;73431;40.794;43.836;2023-12-28T12:52:10;1.50;;;0.73;;
83495;SDS011;73431;40.794;43.836;2023-12-28T12:54:39;3.55;;;0.60;;
83495;SDS011;73431;40.794;43.836;2023-12-28T12:57:07;0.85;;;0.45;;
83495;SDS011;73431;40.794;43.836;2023-12-28T12:59:34;4.13;;;1.30;;
83495;SDS011;73431;40.794;43.836;2023-12-28T13:02:02;1.08;;;0.50;;
83495;SDS011;73431;40.794;43.836;2023-12-28T13:04:31;1.23;;;0.70;;
83495;SDS011;73431;40.794;43.836;2023-12-28T13:09:26;1.08;;;0.85;;
83495;SDS011;73431;40.794;43.836;2023-12-28T13:11:54;5.35;;;0.70;;
83495;SDS011;73431;40.794;43.836;2023-12-28T13:14:22;1.48;;;0.50;;
83495;SDS011;73431;40.794;43.836;2023-12-28T13:16:49;4.63;;;0.82;;
83495;SDS011;73431;40.794;43.836;2023-12-28T13:19:24;2.78;;;0.50;;
83495;SDS011;73431;40.794;43.836;2023-12-28T13:21:52;4.05;;;1.08;;
83495;SDS011;73431;40.794;43.836;2023-12-28T13:24:20;1.52;;;0.32;;
83495;SDS011;73431;40.794;43.836;2023-12-28T13:26:48;0.73;;;0.32;;
83495;SDS011;73431;40.794;43.836;2023-12-28T13:29:15;5.22;;;0.70;;
83495;SDS011;73431;40.794;43.836;2023-12-28T13:31:43;1.30;;;0.40;;
83495;SDS011;73431;40.794;43.836;2023-12-28T13:34:12;0.85;;;0.30;;
83495;SDS011;73431;40.794;43.836;2023-12-28T13:36:40;3.17;;;0.30;;
83495;SDS011;73431;40.794;43.836;2023-12-28T13:39:08;1.10;;;0.40;;
83495;SDS011;73431;40.794;43.836;2023-12-28T13:41:38;1.52;;;0.50;;
83495;SDS011;73431;40.794;43.836;2023-12-28T13:44:06;1.20;;;0.63;;
83495;SDS011;73431;40.794;43.836;2023-12-28T13:46:40;3.05;;;0.77;;
83495;SDS011;73431;40.794;43.836;2023-12-28T13:49:08;15.27;;;0.77;;
83495;SDS011;73431;40.794;43.836;2023-12-28T13:51:36;2.97;;;0.43;;
83495;SDS011;73431;40.794;43.836;2023-12-28T13:56:32;0.93;;;0.22;;
83495;SDS011;73431;40.794;43.836;2023-12-28T13:59:00;0.73;;;0.35;;
83495;SDS011;73431;40.794;43.836;2023-12-28T14:01:28;3.42;;;1.63;;
83495;SDS011;73431;40.794;43.836;2023-12-28T14:03:56;1.05;;;0.55;;
83495;SDS011;73431;40.794;43.836;2023-12-28T14:06:24;5.82;;;0.40;;
83495;SDS011;73431;40.794;43.836;2023-12-28T14:08:52;1.17;;;0.43;;
83495;SDS011;73431;40.794;43.836;2023-12-28T14:11:20;5.68;;;1.77;;
83495;SDS011;73431;40.794;43.836;2023-12-28T14:13:48;3.83;;;0.68;;
83495;SDS011;73431;40.794;43.836;2023-12-28T14:16:16;4.72;;;1.80;;
83495;SDS011;73431;40.794;43.836;2023-12-28T14:18:43;3.90;;;1.63;;
83495;SDS011;73431;40.794;43.836;2023-12-28T14:21:11;3.67;;;1.23;;
83495;SDS011;73431;40.794;43.836;2023-12-28T14:23:40;0.93;;;0.50;;
83495;SDS011;73431;40.794;43.836;2023-12-28T14:26:12;3.25;;;0.88;;
83495;SDS011;73431;40.794;43.836;2023-12-28T14:28:42;1.55;;;1.10;;
83495;SDS011;73431;40.794;43.836;2023-12-28T14:31:10;1.70;;;0.93;;
83495;SDS011;73431;40.794;43.836;2023-12-28T14:33:39;2.55;;;1.23;;
83495;SDS011;73431;40.794;43.836;2023-12-28T14:36:19;4.47;;;1.88;;
83495;SDS011;73431;40.794;43.836;2023-12-28T14:39:02;6.03;;;2.30;;
83495;SDS011;73431;40.794;43.836;2023-12-28T14:41:35;4.32;;;2.13;;
83495;SDS011;73431;40.794;43.836;2023-12-28T14:44:07;4.18;;;1.33;;
83495;SDS011;73431;40.794;43.836;2023-12-28T14:46:36;2.67;;;1.00;;
83495;SDS011;73431;40.794;43.836;2023-12-28T14:49:03;7.88;;;5.10;;
83495;SDS011;73431;40.794;43.836;2023-12-28T14:54:00;3.85;;;1.48;;
83495;SDS011;73431;40.794;43.836;2023-12-28T14:56:27;9.95;;;4.53;;
83495;SDS011;73431;40.794;43.836;2023-12-28T14:59:11;17.60;;;6.43;;
83495;SDS011;73431;40.794;43.836;2023-12-28T15:01:39;23.88;;;11.27;;
83495;SDS011;73431;40.794;43.836;2023-12-28T15:04:08;1.25;;;0.80;;
83495;SDS011;73431;40.794;43.836;2023-12-28T15:06:36;5.75;;;2.15;;
83495;SDS011;73431;40.794;43.836;2023-12-28T15:09:04;4.00;;;2.50;;
83495;SDS011;73431;40.794;43.836;2023-12-28T15:11:31;5.82;;;3.75;;
83495;SDS011;73431;40.794;43.836;2023-12-28T15:14:14;0.95;;;0.60;;
83495;SDS011;73431;40.794;43.836;2023-12-28T15:16:41;2.53;;;1.77;;
83495;SDS011;73431;40.794;43.836;2023-12-28T15:19:11;1.70;;;0.93;;
83495;SDS011;73431;40.794;43.836;2023-12-28T15:21:40;5.00;;;1.90;;
83495;SDS011;73431;40.794;43.836;2023-12-28T15:24:08;6.43;;;2.40;;
83495;SDS011;73431;40.794;43.836;2023-12-28T15:26:37;5.78;;;3.05;;
83495;SDS011;73431;40.794;43.836;2023-12-28T15:29:05;5.32;;;3.17;;
83495;SDS011;73431;40.794;43.836;2023-12-28T15:31:32;2.03;;;1.20;;